Time;durP1;ratioP1;P1;durP2;ratioP2;P2;SDS_P1;SDS_P2;PMS_P1;PMS_P2;Temp;Humidity;BMP_temperature;BMP_pressure;BME280_temperature;BME280_humidity;BME280_pressure;Samples;Min_cycle;Max_cycle;Signal;HPM_P1;HPM_P2
2024/01/10 00:01:16;;;;;;;;;48.75;37.50;;;;;0.34;62.28;101912.84;4975228;28;45448;-79
2024/01/10 00:03:41;;;;;;;;;51.33;44.33;;;;;0.44;62.05;101909.44;4974978;28;45406;-81
2024/01/10 00:06:06;;;;;;;;;49.67;44.33;;;;;0.42;61.82;101913.78;4974651;28;45484;-82
2024/01/10 00:08:32;;;;;;;;;47.67;31.67;;;;;0.41;62.02;101914.66;4974554;28;45374;-81
2024/01/10 00:10:57;;;;;;;;;42.33;39.67;;;;;0.35;62.77;101903.25;4973483;28;55780;-80
2024/01/10 00:13:22;;;;;;;;;45.67;39.33;;;;;0.29;62.80;101904.13;4976184;28;45455;-81
2024/01/10 00:15:49;;;;;;;;;57.33;42.67;;;;;0.24;63.03;101906.66;4975293;28;55068;-81
2024/01/10 00:18:14;;;;;;;;;45.75;40.50;;;;;0.35;62.80;101908.50;4974977;28;45505;-82
2024/01/10 00:20:40;;;;;;;;;46.25;36.50;;;;;0.47;62.71;101909.44;4972999;28;45841;-80
2024/01/10 00:23:06;;;;;;;;;56.00;42.00;;;;;0.49;62.55;101912.94;4973711;28;45350;-82
2024/01/10 00:25:32;;;;;;;;;53.33;43.33;;;;;0.49;62.40;101912.94;4974260;28;45389;-80
2024/01/10 00:27:57;;;;;;;;;44.67;37.33;;;;;0.53;62.32;101914.75;4974428;28;45605;-79
2024/01/10 00:30:24;;;;;;;;;50.33;40.33;;;;;0.51;62.54;101899.88;4973724;28;45289;-81
2024/01/10 00:32:49;;;;;;;;;59.75;40.75;;;;;0.55;62.10;101899.03;4974031;28;45543;-81
2024/01/10 00:35:15;;;;;;;;;53.00;44.25;;;;;0.67;61.94;101916.56;4974364;28;45442;-81
2024/01/10 00:37:40;;;;;;;;;54.75;43.50;;;;;0.63;61.86;101907.78;4986084;28;45441;-79
2024/01/10 00:40:06;;;;;;;;;59.33;47.33;;;;;0.51;62.16;101902.50;4992935;27;45442;-80
2024/01/10 00:42:33;;;;;;;;;42.25;38.75;;;;;0.51;62.71;101905.97;4992983;28;45512;-82
2024/01/10 00:44:58;;;;;;;;;44.25;40.00;;;;;0.46;62.33;101891.13;4993353;28;45368;-83
2024/01/10 00:47:23;;;;;;;;;62.00;44.33;;;;;0.51;62.75;101900.75;4983862;27;45541;-80
2024/01/10 00:49:49;;;;;;;;;36.00;36.00;;;;;0.47;63.07;101909.44;4972925;28;66099;-80
2024/01/10 00:52:14;;;;;;;;;50.00;43.00;;;;;0.51;62.30;101900.75;4973223;28;53143;-79
2024/01/10 00:54:39;;;;;;;;;43.75;40.00;;;;;0.56;62.08;101904.28;4984483;28;46036;-83
2024/01/10 00:57:05;;;;;;;;;40.50;38.50;;;;;0.56;62.89;101899.03;4974012;28;45466;-84
2024/01/10 00:59:30;;;;;;;;;54.25;41.75;;;;;0.62;62.37;101892.09;4975903;28;61445;-82
2024/01/10 01:01:55;;;;;;;;;31.25;19.50;;;;;0.62;62.38;101887.72;4976065;28;60959;-83
2024/01/10 01:04:21;;;;;;;;;45.75;36.75;;;;;0.63;62.40;101893.84;4976498;28;47485;-81
2024/01/10 01:06:46;;;;;;;;;45.50;38.25;;;;;0.62;62.30;101887.72;4976569;28;45327;-81
2024/01/10 01:09:13;;;;;;;;;51.00;37.00;;;;;0.61;62.06;101878.13;4994627;28;53117;-79
2024/01/10 01:11:38;;;;;;;;;53.25;43.50;;;;;0.58;61.74;101871.13;4995821;28;45246;-81
2024/01/10 01:14:04;;;;;;;;;43.00;35.25;;;;;0.63;61.76;101888.59;4995599;27;45476;-81
2024/01/10 01:16:29;;;;;;;;;40.25;39.25;;;;;0.63;62.39;101878.13;4994001;28;45149;-82
2024/01/10 01:18:54;;;;;;;;;58.50;40.00;;;;;0.63;62.38;101885.97;4975868;28;55901;-81
2024/01/10 01:21:20;;;;;;;;;48.50;35.25;;;;;0.59;62.31;101887.72;4975333;28;45367;-84
2024/01/10 01:23:45;;;;;;;;;45.00;38.25;;;;;0.64;62.20;101879.88;4975646;28;51642;-79
2024/01/10 01:26:10;;;;;;;;;50.00;40.33;;;;;0.68;61.85;101886.91;4975692;28;53610;-83
2024/01/10 01:28:36;;;;;;;;;38.75;33.25;;;;;0.65;62.25;101881.63;4995472;28;45874;-81
2024/01/10 01:31:01;;;;;;;;;51.25;43.25;;;;;0.65;62.54;101885.16;4995862;27;45310;-83
2024/01/10 01:33:26;;;;;;;;;33.00;28.00;;;;;0.62;62.51;101871.13;4996731;28;45438;-82
2024/01/10 01:35:54;;;;;;;;;47.00;40.25;;;;;0.62;62.38;101873.75;4997694;27;45351;-80
2024/01/10 01:38:19;;;;;;;;;49.00;34.25;;;;;0.70;62.35;101880.78;5006196;28;46230;-80
2024/01/10 01:40:44;;;;;;;;;44.75;35.50;;;;;0.72;62.21;101881.66;4993193;28;61647;-84
2024/01/10 01:43:23;;;;;;;;;40.50;35.25;;;;;0.65;62.19;101868.53;4976003;28;45373;-82
2024/01/10 01:45:54;;;;;;;;;45.25;41.25;;;;;0.60;62.61;101886.84;4976752;28;45557;-83
2024/01/10 01:48:20;;;;;;;;;55.75;45.50;;;;;0.55;62.79;101886.84;4976655;28;47173;-81
2024/01/10 01:50:48;;;;;;;;;39.75;34.50;;;;;0.65;62.88;101892.09;4976203;28;45349;-81
2024/01/10 01:53:14;;;;;;;;;49.00;41.50;;;;;0.64;62.18;101885.09;4975401;28;45410;-80
2024/01/10 01:55:41;;;;;;;;;51.25;36.25;;;;;0.72;62.24;101888.66;4974765;28;45537;-80
2024/01/10 01:58:07;;;;;;;;;48.75;34.50;;;;;0.61;62.20;101872.88;4975416;28;46358;-79
2024/01/10 02:00:34;;;;;;;;;49.25;36.50;;;;;0.64;62.52;101885.09;4976054;28;45256;-81
2024/01/10 02:03:00;;;;;;;;;47.00;42.25;;;;;0.55;62.37;101865.88;4975722;28;45334;-80
2024/01/10 02:05:26;;;;;;;;;47.50;41.75;;;;;0.58;62.62;101881.59;4975801;28;45439;-80
2024/01/10 02:07:51;;;;;;;;;43.00;32.25;;;;;0.51;62.78;101884.16;4975716;28;46102;-81
2024/01/10 02:10:19;;;;;;;;;39.50;26.50;;;;;0.49;63.08;101878.06;4975643;28;45242;-81
2024/01/10 02:12:45;;;;;;;;;44.25;39.75;;;;;0.54;62.67;101872.00;4976127;28;45343;-80
2024/01/10 02:15:10;;;;;;;;;47.00;38.00;;;;;0.62;62.94;101873.75;4975812;28;45493;-80
2024/01/10 02:17:35;;;;;;;;;38.75;29.00;;;;;0.68;61.95;101871.19;4975664;28;46016;-80
2024/01/10 02:20:11;;;;;;;;;52.00;33.50;;;;;0.70;62.63;101879.91;4975846;28;45349;-80
2024/01/10 02:22:36;;;;;;;;;40.75;33.25;;;;;0.73;62.24;101879.94;4975813;28;45441;-81
2024/01/10 02:25:07;;;;;;;;;46.00;38.75;;;;;0.72;62.43;101879.06;4978626;28;45673;-81
2024/01/10 02:27:34;;;;;;;;;54.50;41.50;;;;;0.78;62.43;101873.88;4983401;28;45340;-81
2024/01/10 02:30:02;;;;;;;;;49.25;36.00;;;;;0.80;62.67;101871.25;4976381;28;45353;-81
2024/01/10 02:32:27;;;;;;;;;47.75;35.00;;;;;0.80;62.14;101872.13;4975370;28;45429;-81
2024/01/10 02:34:53;;;;;;;;;39.50;35.50;;;;;0.84;62.16;101866.03;4974723;28;45447;-81
2024/01/10 02:37:18;;;;;;;;;30.25;27.25;;;;;0.89;61.68;101860.78;4975094;28;66645;-83
2024/01/10 02:39:43;;;;;;;;;38.25;31.25;;;;;0.80;62.68;101872.13;4974382;28;45406;-82
2024/01/10 02:42:09;;;;;;;;;48.75;39.25;;;;;0.80;62.51;101874.75;4975513;28;48578;-82
2024/01/10 02:44:34;;;;;;;;;42.75;33.00;;;;;0.74;62.15;101845.03;4989999;28;53926;-80
2024/01/10 02:46:59;;;;;;;;;42.00;38.00;;;;;0.83;62.50;101863.41;4974599;28;45437;-80
2024/01/10 02:49:25;;;;;;;;;46.25;40.25;;;;;0.78;61.69;101872.97;4980867;28;58996;-80
2024/01/10 02:51:50;;;;;;;;;37.50;34.25;;;;;0.74;61.99;101879.94;4994642;28;45314;-79
2024/01/10 02:54:15;;;;;;;;;43.75;35.25;;;;;0.71;61.96;101860.72;4994718;28;45360;-80
2024/01/10 02:56:40;;;;;;;;;39.00;33.25;;;;;0.70;62.12;101861.59;4989210;28;51791;-79
2024/01/10 02:59:06;;;;;;;;;46.00;36.75;;;;;0.64;61.47;101854.56;4975636;28;45275;-80
2024/01/10 03:01:31;;;;;;;;;40.50;36.25;;;;;0.64;61.40;101853.69;4975032;28;45201;-79
2024/01/10 03:03:56;;;;;;;;;46.25;40.00;;;;;0.62;61.58;101850.19;4974889;28;45238;-81
2024/01/10 03:06:22;;;;;;;;;39.00;34.00;;;;;0.51;61.76;101845.78;4975219;28;45197;-81
2024/01/10 03:08:47;;;;;;;;;42.75;35.25;;;;;0.53;62.17;101854.53;4974884;28;45170;-80
2024/01/10 03:11:12;;;;;;;;;52.75;43.25;;;;;0.45;61.96;101848.38;4975014;28;45221;-82
2024/01/10 03:13:39;;;;;;;;;43.25;34.25;;;;;0.38;61.87;101854.44;4989037;28;45665;-82
2024/01/10 03:16:04;;;;;;;;;51.25;37.25;;;;;0.40;62.39;101844.88;4975286;28;45494;-80
2024/01/10 03:18:29;;;;;;;;;50.00;41.50;;;;;0.53;62.10;101851.94;4975915;28;45409;-80
2024/01/10 03:20:55;;;;;;;;;42.25;31.50;;;;;0.57;61.65;101848.44;4973442;28;52925;-80
2024/01/10 03:23:21;;;;;;;;;47.25;42.00;;;;;0.63;62.08;101851.94;4974905;28;45279;-82
2024/01/10 03:25:47;;;;;;;;;39.25;30.75;;;;;0.68;61.88;101852.88;4975134;28;46216;-79
2024/01/10 03:28:17;;;;;;;;;34.00;34.00;;;;;0.65;61.78;101851.13;4988902;28;45555;-80
2024/01/10 03:30:42;;;;;;;;;49.50;39.75;;;;;0.66;61.33;101841.50;4974564;28;45255;-80
2024/01/10 03:33:07;;;;;;;;;43.75;37.50;;;;;0.56;61.94;101849.31;4975597;28;45618;-80
2024/01/10 03:35:33;;;;;;;;;29.50;25.75;;;;;0.65;61.73;101844.97;4974629;28;56414;-80
2024/01/10 03:37:58;;;;;;;;;38.50;33.00;;;;;0.70;61.14;101849.38;4973785;28;60696;-80
2024/01/10 03:40:23;;;;;;;;;36.00;34.25;;;;;0.65;61.42;101837.13;4974547;28;56247;-81
2024/01/10 03:42:49;;;;;;;;;42.50;36.75;;;;;0.73;61.07;101838.91;4975104;28;45455;-81
2024/01/10 03:45:16;;;;;;;;;52.00;37.75;;;;;0.65;61.45;101834.50;4974367;28;46142;-79
2024/01/10 03:47:42;;;;;;;;;44.75;37.25;;;;;0.69;61.07;101844.13;4973983;28;45532;-84
2024/01/10 03:50:08;;;;;;;;;40.25;36.75;;;;;0.63;61.35;101824.03;4975071;28;45468;-84
2024/01/10 03:52:33;;;;;;;;;38.00;32.25;;;;;0.72;61.22;101828.44;4975250;28;45432;-84
2024/01/10 03:54:59;;;;;;;;;44.75;36.25;;;;;0.75;61.54;101831.94;4974866;28;46158;-82
2024/01/10 03:57:24;;;;;;;;;45.00;36.00;;;;;0.79;60.94;101838.94;4974659;28;45398;-80
2024/01/10 03:59:50;;;;;;;;;48.00;36.25;;;;;0.82;60.56;101841.56;4975104;28;45394;-81
2024/01/10 04:02:15;;;;;;;;;41.25;34.00;;;;;0.74;61.21;101834.53;4976622;28;45358;-83
2024/01/10 04:04:41;;;;;;;;;39.25;31.00;;;;;0.85;60.65;101848.56;4975131;28;46331;-79
2024/01/10 04:07:06;;;;;;;;;35.00;33.75;;;;;0.82;61.13;101833.72;4974733;28;45341;-81
2024/01/10 04:09:31;;;;;;;;;37.25;35.50;;;;;0.87;60.95;101841.56;4975010;28;45280;-82
2024/01/10 04:11:57;;;;;;;;;35.25;34.75;;;;;0.84;61.04;101834.59;4974143;28;45469;-81
2024/01/10 04:14:22;;;;;;;;;45.75;37.50;;;;;0.92;60.89;101839.88;4973631;28;66855;-83
2024/01/10 04:16:48;;;;;;;;;29.25;24.00;;;;;0.89;60.52;101831.97;4974297;28;45530;-81
2024/01/10 04:19:13;;;;;;;;;45.75;37.25;;;;;0.91;60.95;101822.38;4974257;28;45420;-83
2024/01/10 04:21:39;;;;;;;;;43.50;35.25;;;;;0.93;60.22;101831.13;4974285;28;45252;-81
2024/01/10 04:24:04;;;;;;;;;49.75;38.25;;;;;0.84;60.35;101808.41;4973905;28;45353;-81
2024/01/10 04:26:30;;;;;;;;;35.50;25.50;;;;;0.91;60.38;101822.38;4974257;28;45318;-81
2024/01/10 04:28:55;;;;;;;;;38.75;28.75;;;;;0.92;60.72;101821.53;4973829;28;53576;-82
2024/01/10 04:31:21;;;;;;;;;33.50;33.00;;;;;0.85;60.27;101822.38;4974566;28;45331;-81
2024/01/10 04:33:46;;;;;;;;;42.75;32.00;;;;;0.93;60.31;101818.03;4976995;28;45978;-83
2024/01/10 04:36:11;;;;;;;;;52.25;36.00;;;;;0.93;60.32;101825.03;4988682;28;45544;-81
2024/01/10 04:38:37;;;;;;;;;44.75;37.75;;;;;0.99;60.55;101820.66;4977677;28;45418;-84
2024/01/10 04:41:02;;;;;;;;;44.50;30.50;;;;;0.98;60.35;101813.69;4977358;28;45544;-83
2024/01/10 04:43:27;;;;;;;;;37.75;36.25;;;;;0.92;60.56;101811.06;4976581;28;45304;-81
2024/01/10 04:45:53;;;;;;;;;51.75;40.25;;;;;0.95;60.05;101816.31;4976811;28;61362;-82
2024/01/10 04:48:21;;;;;;;;;38.00;34.00;;;;;0.97;60.64;101817.19;4977518;28;45344;-81
2024/01/10 04:50:46;;;;;;;;;43.25;35.25;;;;;0.97;60.38;101816.31;4977441;28;45182;-80
2024/01/10 04:53:11;;;;;;;;;45.75;39.00;;;;;0.93;60.71;101814.56;4992304;28;46417;-82
2024/01/10 04:55:37;;;;;;;;;47.50;37.75;;;;;0.89;60.11;101811.91;4977744;28;45379;-79
2024/01/10 04:58:02;;;;;;;;;38.75;37.50;;;;;0.96;60.40;101804.94;4976908;27;45404;-81
2024/01/10 05:00:30;;;;;;;;;40.50;32.25;;;;;0.99;60.29;101804.94;4976873;28;45343;-81
2024/01/10 05:02:56;;;;;;;;;48.00;39.75;;;;;0.96;59.93;101802.34;4977373;28;48182;-80
2024/01/10 05:05:23;;;;;;;;;41.25;32.25;;;;;1.01;60.24;101803.22;4976201;28;45318;-82
2024/01/10 05:07:50;;;;;;;;;51.75;39.50;;;;;1.03;60.33;101801.47;4976601;28;45337;-83
2024/01/10 05:10:15;;;;;;;;;48.00;39.75;;;;;1.14;59.54;101804.09;4976579;28;45271;-81
2024/01/10 05:12:41;;;;;;;;;46.75;37.00;;;;;1.14;59.19;101798.88;4979003;27;45242;-81
2024/01/10 05:15:07;;;;;;;;;38.75;32.25;;;;;1.06;59.65;101809.34;4995620;27;66543;-84
2024/01/10 05:17:32;;;;;;;;;31.25;30.25;;;;;0.98;59.62;101787.50;4978683;28;45284;-81
2024/01/10 05:19:57;;;;;;;;;48.75;39.50;;;;;1.15;60.05;101811.97;4991099;27;52213;-82
2024/01/10 05:22:22;;;;;;;;;54.25;37.00;;;;;1.15;60.10;101804.09;4977304;28;54935;-83
2024/01/10 05:24:48;;;;;;;;;35.75;29.75;;;;;1.08;60.00;101794.50;4977668;28;45439;-83
2024/01/10 05:27:13;;;;;;;;;39.75;34.25;;;;;1.17;59.55;101807.63;4990528;28;54244;-83
2024/01/10 05:29:38;;;;;;;;;35.75;33.75;;;;;1.12;59.93;101798.00;4976192;28;45234;-81
2024/01/10 05:32:04;;;;;;;;;56.50;33.50;;;;;1.12;59.84;101796.25;4976125;28;58493;-79
2024/01/10 05:34:29;;;;;;;;;43.25;35.50;;;;;1.12;59.85;101796.25;4977790;28;45282;-81
2024/01/10 05:36:55;;;;;;;;;38.00;32.25;;;;;1.00;59.92;101800.59;4975222;28;53548;-82
2024/01/10 05:39:21;;;;;;;;;41.00;36.00;;;;;0.97;59.76;101793.59;4976021;28;45426;-81
2024/01/10 05:41:47;;;;;;;;;43.25;39.75;;;;;0.96;59.92;101804.06;4975682;28;45421;-80
2024/01/10 05:44:12;;;;;;;;;45.50;39.50;;;;;0.82;60.03;101772.63;4974965;28;45389;-81
2024/01/10 05:46:38;;;;;;;;;39.75;32.25;;;;;0.97;59.46;101806.69;4980566;28;45460;-81
2024/01/10 05:49:04;;;;;;;;;37.00;34.50;;;;;0.94;59.99;101803.19;4976175;28;45548;-80
2024/01/10 05:51:30;;;;;;;;;41.75;35.25;;;;;0.87;60.03;101804.91;4977153;28;45440;-83
2024/01/10 05:53:56;;;;;;;;;40.75;37.75;;;;;0.88;60.70;101797.06;4977016;27;45255;-83
2024/01/10 05:56:21;;;;;;;;;40.50;29.50;;;;;0.87;59.98;101781.34;4974148;28;45232;-80
2024/01/10 05:58:46;;;;;;;;;40.25;37.25;;;;;1.02;60.17;101804.06;4975812;28;45349;-80
2024/01/10 06:01:11;;;;;;;;;49.25;30.50;;;;;1.04;59.77;101798.00;4975621;28;45570;-82
2024/01/10 06:03:37;;;;;;;;;37.50;32.25;;;;;1.03;59.44;101784.88;4986169;28;46244;-80
2024/01/10 06:06:03;;;;;;;;;42.00;36.25;;;;;1.02;58.18;101783.13;4989130;28;45293;-79
2024/01/10 06:08:28;;;;;;;;;35.25;28.50;;;;;1.01;59.29;101786.63;4983993;28;45610;-79
2024/01/10 06:10:54;;;;;;;;;47.25;38.75;;;;;1.08;58.76;101799.75;4975664;28;47245;-82
2024/01/10 06:13:19;;;;;;;;;36.25;29.50;;;;;1.06;58.86;101796.25;4989481;27;48637;-85
2024/01/10 06:15:45;;;;;;;;;36.75;32.25;;;;;1.04;58.39;101779.66;4996519;28;45394;-83
2024/01/10 06:18:10;;;;;;;;;42.75;36.00;;;;;1.01;57.63;101787.50;4996983;28;45479;-80
2024/01/10 06:20:38;;;;;;;;;35.00;29.25;;;;;1.01;57.33;101784.00;4995730;28;52177;-81
2024/01/10 06:23:04;;;;;;;;;36.75;29.25;;;;;1.02;57.35;101789.22;4979100;27;45370;-84
2024/01/10 06:25:29;;;;;;;;;34.25;32.75;;;;;1.01;57.12;101784.00;4976850;28;45401;-79
2024/01/10 06:27:55;;;;;;;;;41.00;29.75;;;;;1.02;57.36;101794.47;4975375;28;47676;-79
2024/01/10 06:30:20;;;;;;;;;38.00;28.50;;;;;1.02;56.68;101777.88;4980920;28;45823;-80
2024/01/10 06:32:45;;;;;;;;;42.25;32.50;;;;;0.95;56.28;101766.53;4992175;28;66695;-79
2024/01/10 06:35:11;;;;;;;;;28.50;27.00;;;;;0.99;56.47;101773.53;4993890;28;45340;-80
2024/01/10 06:37:37;;;;;;;;;33.00;31.75;;;;;1.05;56.91;101772.69;4994910;28;45293;-79
2024/01/10 06:40:04;;;;;;;;;29.75;26.00;;;;;1.08;56.52;101775.28;4995131;27;45266;-80
2024/01/10 06:42:29;;;;;;;;;36.50;36.00;;;;;1.05;56.45;101773.53;4995190;28;45246;-80
2024/01/10 06:44:55;;;;;;;;;36.50;32.75;;;;;0.96;56.40;101773.53;4995431;28;45311;-78
2024/01/10 06:47:21;;;;;;;;;39.75;29.25;;;;;1.00;56.50;101775.25;4994806;28;45227;-80
2024/01/10 06:49:46;;;;;;;;;35.75;32.50;;;;;1.02;56.78;101784.00;4984418;27;46529;-80
2024/01/10 06:52:12;;;;;;;;;34.00;28.50;;;;;1.03;57.45;101780.50;4994696;28;45282;-81
2024/01/10 06:54:37;;;;;;;;;35.25;30.00;;;;;1.02;57.72;101783.13;4993539;28;45440;-80
2024/01/10 06:57:03;;;;;;;;;37.25;31.75;;;;;0.93;57.49;101773.53;4993372;28;45847;-79
2024/01/10 06:59:28;;;;;;;;;28.75;23.75;;;;;1.05;57.89;101794.50;4985716;28;45609;-81
2024/01/10 07:01:55;;;;;;;;;34.00;32.75;;;;;1.06;57.50;101785.78;4994979;27;58491;-84
2024/01/10 07:04:23;;;;;;;;;41.25;31.00;;;;;1.08;57.46;101789.25;4995587;28;45421;-82
2024/01/10 07:06:49;;;;;;;;;38.50;29.25;;;;;1.00;57.71;101792.72;4988617;27;45548;-81
2024/01/10 07:09:19;;;;;;;;;31.25;24.00;;;;;0.95;58.00;101779.63;4993068;28;47209;-82
2024/01/10 07:11:47;;;;;;;;;36.25;30.25;;;;;0.94;58.33;101795.34;4994430;28;45476;-81
2024/01/10 07:14:14;;;;;;;;;31.75;25.50;;;;;0.92;58.19;101797.09;5010767;27;45290;-82
2024/01/10 07:16:48;;;;;;;;;35.25;32.00;;;;;0.94;58.61;101795.34;5130300;27;1366298;-82
2024/01/10 07:19:14;;;;;;;;;34.75;32.75;;;;;0.92;58.44;101787.50;5152286;27;45350;-78
2024/01/10 07:21:42;;;;;;;;;42.25;31.75;;;;;0.88;57.75;101796.19;5153241;27;45367;-82
2024/01/10 07:24:11;;;;;;;;;47.00;31.00;;;;;0.82;58.32;101775.22;5139171;27;45701;-77
2024/01/10 07:26:37;;;;;;;;;41.50;28.75;;;;;0.84;58.65;101783.97;5140853;27;46144;-80
2024/01/10 07:29:02;;;;;;;;;35.00;33.50;;;;;1.00;57.92;101788.38;5139253;27;45343;-81
2024/01/10 07:31:29;;;;;;;;;35.50;26.75;;;;;1.18;56.95;101796.28;5151113;27;45328;-80
2024/01/10 07:33:56;;;;;;;;;38.25;26.75;;;;;1.23;56.28;101803.25;5144028;27;45499;-79
2024/01/10 07:36:22;;;;;;;;;37.50;30.50;;;;;1.26;56.64;101798.03;5134971;27;45357;-79
2024/01/10 07:38:48;;;;;;;;;35.25;28.25;;;;;1.26;55.47;101790.16;5150982;27;45465;-84
2024/01/10 07:41:13;;;;;;;;;26.75;26.75;;;;;1.17;55.13;101780.53;5135178;27;59075;-82
2024/01/10 07:43:39;;;;;;;;;36.50;31.00;;;;;1.18;55.29;101777.94;5135593;27;45360;-80
2024/01/10 07:46:04;;;;;;;;;37.75;31.00;;;;;1.35;55.26;101813.75;5141871;27;46661;-83
2024/01/10 07:48:31;;;;;;;;;35.00;31.25;;;;;1.37;55.15;101796.28;5150490;27;45444;-80
2024/01/10 07:50:56;;;;;;;;;40.75;34.00;;;;;1.29;53.47;101788.41;5146499;27;45446;-81
2024/01/10 07:53:22;;;;;;;;;26.75;24.75;;;;;1.31;54.18;101801.53;5132768;27;45448;-81
2024/01/10 07:55:47;;;;;;;;;39.25;35.00;;;;;1.23;54.78;101806.75;5146089;27;45429;-79
2024/01/10 07:58:12;;;;;;;;;39.50;35.25;;;;;1.27;55.38;101816.34;5139529;27;45431;-80
2024/01/10 08:00:37;;;;;;;;;41.50;34.50;;;;;1.24;55.00;101805.00;5134496;27;57963;-79
2024/01/10 08:03:03;;;;;;;;;33.50;28.75;;;;;1.40;55.50;101812.00;5139490;27;45489;-80
2024/01/10 08:05:28;;;;;;;;;42.75;30.75;;;;;1.40;54.74;101809.38;5146128;27;46355;-79
2024/01/10 08:07:53;;;;;;;;;30.50;28.25;;;;;1.45;54.34;101815.53;5144467;27;45315;-83
2024/01/10 08:10:19;;;;;;;;;36.50;28.75;;;;;1.40;55.03;101817.25;5156593;27;45409;-80
2024/01/10 08:12:44;;;;;;;;;43.75;36.75;;;;;1.28;55.05;101807.63;5155652;27;45332;-82
2024/01/10 08:15:10;;;;;;;;;40.00;29.25;;;;;1.34;55.39;101812.03;5155086;27;46770;-79
2024/01/10 08:17:37;;;;;;;;;30.25;24.50;;;;;1.34;55.46;101822.50;5154803;27;45370;-80
2024/01/10 08:20:04;;;;;;;;;37.25;32.00;;;;;1.38;55.87;101819.00;5136311;27;45304;-82
2024/01/10 08:22:29;;;;;;;;;38.50;33.50;;;;;1.40;55.52;101827.75;5154887;27;45452;-80
2024/01/10 08:24:55;;;;;;;;;37.00;32.25;;;;;1.32;55.08;101819.00;5153248;27;46301;-83
2024/01/10 08:27:21;;;;;;;;;35.75;32.25;;;;;1.30;55.33;101815.47;5145576;27;45471;-80
2024/01/10 08:29:46;;;;;;;;;40.00;35.75;;;;;1.41;55.58;101832.09;5141244;27;45297;-79
2024/01/10 08:32:12;;;;;;;;;41.00;29.50;;;;;1.44;54.98;101837.38;5144569;27;45388;-80
2024/01/10 08:34:37;;;;;;;;;47.00;38.00;;;;;1.36;55.52;101826.00;5125514;27;46524;-81
2024/01/10 08:37:03;;;;;;;;;41.75;34.00;;;;;1.40;55.41;101830.34;5144276;27;45396;-80
2024/01/10 08:39:30;;;;;;;;;20.00;20.00;;;;;1.40;55.13;101825.13;5147407;27;45357;-81
2024/01/10 08:41:56;;;;;;;;;45.50;38.50;;;;;1.43;54.92;101823.41;5139998;27;45203;-79
2024/01/10 08:44:22;;;;;;;;;30.50;28.25;;;;;1.41;55.31;101824.25;5125313;27;46193;-79
2024/01/10 08:46:48;;;;;;;;;40.00;33.50;;;;;1.46;55.38;101830.38;5127956;27;45229;-81
2024/01/10 08:49:13;;;;;;;;;37.50;33.50;;;;;1.36;55.43;101816.38;5109168;27;45161;-79
2024/01/10 08:51:40;;;;;;;;;30.00;26.25;;;;;1.39;55.65;101831.22;5109587;27;45389;-83
2024/01/10 08:54:06;;;;;;;;;40.25;36.75;;;;;1.39;55.68;101826.00;5126480;27;45400;-81
2024/01/10 08:56:31;;;;;;;;;31.75;23.75;;;;;1.40;55.86;101830.34;5125744;27;45400;-83
2024/01/10 08:58:57;;;;;;;;;33.00;31.75;;;;;1.30;55.50;101812.88;5144370;27;45388;-80
2024/01/10 09:01:22;;;;;;;;;31.00;26.75;;;;;1.42;54.98;101831.22;5145900;27;45317;-81
2024/01/10 09:03:48;;;;;;;;;41.00;32.50;;;;;1.48;54.44;101821.66;5144749;27;45353;-80
2024/01/10 09:06:14;;;;;;;;;28.25;28.25;;;;;1.43;54.39;101833.88;5144604;27;45308;-82
2024/01/10 09:08:39;;;;;;;;;41.25;33.25;;;;;1.39;54.88;101823.38;5146097;27;45391;-79
2024/01/10 09:11:04;;;;;;;;;37.75;33.25;;;;;1.43;54.73;101828.63;5124108;27;45644;-80
2024/01/10 09:13:30;;;;;;;;;36.50;33.50;;;;;1.45;54.97;101847.00;5117088;27;46081;-81
2024/01/10 09:15:55;;;;;;;;;32.75;29.00;;;;;1.34;54.37;101807.66;5112191;27;45538;-80
2024/01/10 09:18:21;;;;;;;;;40.75;33.00;;;;;1.46;54.81;101840.88;5139963;27;44825;-80
2024/01/10 09:20:47;;;;;;;;;40.75;33.75;;;;;1.48;54.02;101829.50;5139849;27;45520;-80
2024/01/10 09:23:13;;;;;;;;;36.75;27.00;;;;;1.60;54.39;101831.25;5130478;27;46080;-81
2024/01/10 09:25:39;;;;;;;;;37.75;33.00;;;;;1.65;53.78;101845.25;5134364;27;45448;-79
2024/01/10 09:28:06;;;;;;;;;40.00;36.00;;;;;1.75;53.89;101846.13;5132348;27;45429;-78
2024/01/10 09:30:31;;;;;;;;;38.50;32.00;;;;;1.65;54.43;101824.25;5118609;27;45521;-81
2024/01/10 09:32:56;;;;;;;;;37.00;28.25;;;;;1.78;53.82;101849.63;5114922;27;45811;-84
2024/01/10 09:35:22;;;;;;;;;29.50;28.00;;;;;1.83;53.05;101851.38;5128917;27;45479;-79
2024/01/10 09:37:49;;;;;;;;;32.75;28.25;;;;;1.77;53.02;101844.38;5144411;27;45441;-83
2024/01/10 09:40:16;;;;;;;;;48.50;34.25;;;;;1.80;52.77;101846.13;5136259;27;45642;-81
2024/01/10 09:42:47;;;;;;;;;30.50;29.25;;;;;1.67;52.44;101833.00;5147661;27;45367;-81
2024/01/10 09:45:15;;;;;;;;;34.25;30.00;;;;;1.73;52.52;101851.38;5136999;27;45317;-80
2024/01/10 09:47:43;;;;;;;;;34.25;27.00;;;;;1.80;51.98;101851.38;5108189;27;44886;-82
2024/01/10 09:50:10;;;;;;;;;37.50;31.25;;;;;1.53;51.83;101826.88;5132843;27;45565;-78
2024/01/10 09:52:46;;;;;;;;;23.50;20.25;;;;;1.75;52.78;101857.50;5122843;27;45395;-80
2024/01/10 09:55:13;;;;;;;;;45.00;32.75;;;;;1.78;51.75;101856.63;5106358;27;45365;-81
2024/01/10 09:57:40;;;;;;;;;32.50;29.50;;;;;1.77;52.22;101850.50;5119463;27;45539;-83
2024/01/10 10:00:10;;;;;;;;;34.50;26.50;;;;;1.80;52.92;101843.50;5128481;27;45501;-84
2024/01/10 10:02:38;;;;;;;;;31.50;29.25;;;;;1.87;53.85;101861.00;5139531;27;45506;-83
2024/01/10 10:05:12;;;;;;;;;44.00;33.00;;;;;1.71;54.15;101840.00;5123459;27;45363;-81
2024/01/10 10:07:49;;;;;;;;;32.25;30.25;;;;;1.87;54.40;101853.13;5111702;27;45834;-83
2024/01/10 10:10:15;;;;;;;;;34.00;27.75;;;;;1.87;54.31;101850.50;5121152;27;45339;-84
2024/01/10 10:12:54;;;;;;;;;32.75;29.25;;;;;1.86;54.39;101827.78;5126739;27;45348;-81
2024/01/10 10:15:23;;;;;;;;;39.75;27.50;;;;;2.09;54.36;101854.00;5141203;27;45376;-83
2024/01/10 10:17:49;;;;;;;;;44.25;25.00;;;;;2.16;54.92;101838.22;5135049;27;45466;-79
2024/01/10 10:20:20;;;;;;;;;31.25;26.50;;;;;2.39;54.18;101848.69;5128253;27;45436;-83
2024/01/10 10:23:00;;;;;;;;;31.00;24.75;;;;;2.17;53.11;101813.72;5126393;27;46655;-82
2024/01/10 10:25:33;;;;;;;;;42.75;33.75;;;;;2.38;53.39;101843.44;5120255;27;45326;-80
2024/01/10 10:27:59;;;;;;;;;39.50;34.75;;;;;2.42;53.51;101838.16;5121332;27;45341;-85
2024/01/10 10:30:25;;;;;;;;;35.00;27.25;;;;;2.55;53.42;101837.25;5122523;27;45389;-78
2024/01/10 10:32:50;;;;;;;;;41.75;36.50;;;;;2.46;53.31;101828.53;5114613;27;47873;-77
2024/01/10 10:35:18;;;;;;;;;32.25;32.25;;;;;2.59;52.79;101844.22;5122720;27;45250;-77
2024/01/10 10:37:44;;;;;;;;;31.50;27.25;;;;;2.60;52.69;101839.84;5125025;27;45463;-78
2024/01/10 10:40:10;;;;;;;;;38.50;30.50;;;;;2.65;52.62;101838.09;5121564;27;45631;-77
2024/01/10 10:42:43;;;;;;;;;33.25;31.50;;;;;2.62;52.70;101832.88;5122146;27;45558;-80
2024/01/10 10:45:14;;;;;;;;;32.00;27.50;;;;;2.68;52.88;101817.06;5122651;27;45527;-78
2024/01/10 10:47:43;;;;;;;;;32.25;28.75;;;;;2.82;52.09;101832.78;5129365;27;45498;-85
2024/01/10 10:50:20;;;;;;;;;37.50;29.00;;;;;2.95;51.52;101830.09;5131119;27;45501;-85
2024/01/10 10:52:47;;;;;;;;;35.50;30.75;;;;;3.02;51.82;101816.94;5129746;27;45267;-79
2024/01/10 10:55:17;;;;;;;;;33.00;28.25;;;;;3.16;51.99;101830.84;5130388;27;45460;-80
2024/01/10 10:57:46;;;;;;;;;36.75;27.00;;;;;3.11;50.68;101816.84;5140550;27;45273;-79
2024/01/10 11:00:15;;;;;;;;;34.75;32.00;;;;;3.13;51.11;101816.00;5127898;27;45529;-82
2024/01/10 11:02:41;;;;;;;;;28.75;26.50;;;;;3.11;49.85;101822.09;5122437;27;46162;-79
2024/01/10 11:05:09;;;;;;;;;35.50;27.25;;;;;3.11;50.37;101822.09;5124747;27;44755;-80
2024/01/10 11:07:38;;;;;;;;;31.50;27.25;;;;;3.15;50.02;101821.22;5134065;27;46425;-78
2024/01/10 11:10:10;;;;;;;;;32.25;32.25;;;;;2.81;49.98;101818.75;5131960;27;45374;-79
2024/01/10 11:13:14;;;;;;;;;41.50;34.50;;;;;2.91;50.44;101819.59;5131401;27;46392;-81